createdAt,value
2017-07-10T00:00:12.247Z,10.39
2017-07-10T00:01:12.229Z,10.42
2017-07-10T00:02:11.905Z,10.43
2017-07-10T00:03:12.221Z,10.35
2017-07-10T00:04:12.202Z,10.44
2017-07-10T00:05:11.886Z,10.49
2017-07-10T00:06:11.870Z,10.43
2017-07-10T00:07:11.873Z,10.52
2017-07-10T00:08:11.548Z,10.58
2017-07-10T00:09:11.842Z,10.55
2017-07-10T00:10:11.846Z,10.69
2017-07-10T00:11:11.834Z,10.66
2017-07-10T00:12:11.819Z,10.47
2017-07-10T00:13:12.114Z,10.57
2017-07-10T00:14:12.116Z,10.55
2017-07-10T00:15:11.802Z,10.54
2017-07-10T00:16:12.093Z,10.47
2017-07-10T00:17:12.079Z,10.43
2017-07-10T00:18:12.144Z,10.32
2017-07-10T00:19:12.069Z,10.54
2017-07-10T00:20:11.751Z,10.51
2017-07-10T00:21:12.059Z,10.63
2017-07-10T00:22:12.035Z,10.57
2017-07-10T00:23:11.418Z,10.55
2017-07-10T00:24:11.713Z,10.57
2017-07-10T00:25:12.020Z,10.54
2017-07-10T00:26:11.690Z,10.52
2017-07-10T00:27:11.992Z,10.49
2017-07-10T00:28:11.992Z,10.52
2017-07-10T00:29:11.989Z,10.47
2017-07-10T00:30:11.963Z,10.36
2017-07-10T00:31:11.650Z,10.32
2017-07-10T00:32:11.957Z,10.35
2017-07-10T00:33:11.945Z,10.32
2017-07-10T00:34:11.927Z,10.29
2017-07-10T00:35:11.926Z,10.39
2017-07-10T00:36:11.605Z,10.34
2017-07-10T00:37:11.599Z,10.34
2017-07-10T00:38:11.895Z,10.32
2017-07-10T00:39:11.935Z,10.31
2017-07-10T00:40:11.569Z,10.32
2017-07-10T00:41:11.569Z,10.39
2017-07-10T00:42:11.550Z,10.31
2017-07-10T00:43:11.851Z,10.24
2017-07-10T00:44:11.854Z,10.22
2017-07-10T00:45:11.221Z,10.25
2017-07-10T00:46:11.836Z,10.18
2017-07-10T00:47:11.814Z,10.2
2017-07-10T00:48:11.818Z,10.24
2017-07-10T00:49:11.806Z,10.32
2017-07-10T00:50:11.794Z,10.2
2017-07-10T00:51:11.473Z,10.25
2017-07-10T00:52:11.765Z,10.16
2017-07-10T00:53:11.764Z,10.29
2017-07-10T00:54:11.751Z,10.34
2017-07-10T00:55:11.129Z,10.36
2017-07-10T00:56:11.742Z,10.34
2017-07-10T00:57:11.103Z,10.29
2017-07-10T00:58:11.714Z,10.24
2017-07-10T00:59:11.714Z,10.26
2017-07-10T01:00:11.392Z,10.24
2017-07-10T01:01:11.693Z,10.28
2017-07-10T01:02:11.687Z,10.25
2017-07-10T01:03:11.670Z,10.25
2017-07-10T01:04:11.659Z,10.24
2017-07-10T01:05:11.654Z,10.26
2017-07-10T01:06:11.336Z,10.31
2017-07-10T01:07:11.325Z,10.31
2017-07-10T01:08:11.308Z,10.35
2017-07-10T01:09:11.624Z,10.29
2017-07-10T01:10:11.611Z,10.42
2017-07-10T01:11:11.607Z,10.29
2017-07-10T01:12:11.584Z,10.32
2017-07-10T01:13:11.264Z,10.35
2017-07-10T01:14:11.256Z,10.36
2017-07-10T01:15:11.571Z,10.24
2017-07-10T01:16:11.556Z,10.32
2017-07-10T01:17:10.921Z,10.39
2017-07-10T01:18:11.228Z,10.35
2017-07-10T01:19:11.515Z,10.29
2017-07-10T01:20:11.202Z,10.31
2017-07-10T01:21:11.512Z,10.28
2017-07-10T01:22:11.500Z,10.28
2017-07-10T01:23:11.170Z,10.18
2017-07-10T01:24:11.471Z,10.22
2017-07-10T01:25:11.153Z,10.32
2017-07-10T01:26:11.511Z,10.26
2017-07-10T01:27:11.450Z,10.31
2017-07-10T01:28:11.449Z,10.31
2017-07-10T01:29:11.129Z,10.16
2017-07-10T01:30:11.115Z,10.17
2017-07-10T01:31:11.416Z,10.1
2017-07-10T01:32:11.466Z,10.14
2017-07-10T01:33:11.394Z,10.18
2017-07-10T01:34:11.392Z,10.22
2017-07-10T01:35:11.386Z,10.17
2017-07-10T01:36:11.373Z,10.14
2017-07-10T01:37:11.050Z,10.11
2017-07-10T01:38:11.348Z,10.09
2017-07-10T01:39:11.347Z,10.25
2017-07-10T01:40:11.326Z,10.18
2017-07-10T01:41:11.331Z,10.2
2017-07-10T01:42:10.997Z,10.18
2017-07-10T01:43:11.299Z,10.1
2017-07-10T01:44:11.302Z,10.14
2017-07-10T01:45:11.285Z,10.22
2017-07-10T01:46:10.968Z,10.22
2017-07-10T01:47:11.257Z,10.17
2017-07-10T01:48:10.954Z,10.2
2017-07-10T01:49:11.246Z,10.25
2017-07-10T01:50:10.933Z,10.22
2017-07-10T01:51:11.231Z,10.13
2017-07-10T01:52:10.918Z,10.13
2017-07-10T01:53:11.210Z,10.07
2017-07-10T01:54:11.201Z,10.04
2017-07-10T01:55:10.876Z,10.06
2017-07-10T01:56:11.175Z,10.01
2017-07-10T01:57:11.186Z,10.07
2017-07-10T01:58:11.165Z,10.02
2017-07-10T01:59:11.159Z,10.02
2017-07-10T02:00:11.155Z,9.96
2017-07-10T02:01:11.141Z,9.98
2017-07-10T02:02:11.129Z,9.93
2017-07-10T02:03:10.813Z,9.96
2017-07-10T02:04:11.111Z,9.95
2017-07-10T02:05:11.106Z,10.02
2017-07-10T02:06:11.090Z,9.91
2017-07-10T02:07:11.091Z,9.85
2017-07-10T02:08:11.075Z,9.83
2017-07-10T02:09:11.060Z,9.91
2017-07-10T02:10:10.740Z,9.75
2017-07-10T02:11:11.055Z,9.8
2017-07-10T02:12:11.030Z,9.8
2017-07-10T02:13:11.026Z,9.77
2017-07-10T02:14:11.020Z,9.77
2017-07-10T02:15:11.066Z,9.77
2017-07-10T02:16:10.996Z,9.78
2017-07-10T02:17:10.684Z,9.68
2017-07-10T02:18:10.981Z,9.73
2017-07-10T02:19:10.975Z,9.6
2017-07-10T02:20:10.960Z,9.73
2017-07-10T02:21:10.947Z,9.7
2017-07-10T02:22:10.933Z,9.62
2017-07-10T02:23:10.314Z,9.62
2017-07-10T02:24:10.926Z,9.6
2017-07-10T02:25:10.923Z,9.77
2017-07-10T02:26:10.908Z,9.75
2017-07-10T02:27:10.950Z,9.77
2017-07-10T02:28:10.886Z,9.78
2017-07-10T02:29:10.884Z,9.77
2017-07-10T02:30:10.566Z,9.85
2017-07-10T02:31:10.866Z,9.89
2017-07-10T02:32:10.842Z,9.91
2017-07-10T02:33:10.840Z,9.95
2017-07-10T02:34:10.533Z,10.04
2017-07-10T02:35:10.827Z,10.06
2017-07-10T02:36:10.508Z,9.99
2017-07-10T02:37:10.498Z,10.07
2017-07-10T02:38:10.786Z,10.07
2017-07-10T02:39:10.784Z,10.07
2017-07-10T02:40:10.771Z,10.01
2017-07-10T02:41:10.776Z,9.95
2017-07-10T02:42:10.758Z,9.98
2017-07-10T02:43:10.758Z,10.07
2017-07-10T02:44:10.754Z,9.96
2017-07-10T02:45:10.724Z,10.04
2017-07-10T02:46:10.727Z,10.04
2017-07-10T02:47:10.716Z,10.04
2017-07-10T02:48:10.094Z,10.02
2017-07-10T02:49:10.692Z,10.06
2017-07-10T02:50:10.692Z,9.99
2017-07-10T02:51:10.679Z,10.07
2017-07-10T02:52:10.671Z,9.96
2017-07-10T02:53:10.663Z,10.01
2017-07-10T02:54:10.651Z,10.04
2017-07-10T02:55:10.645Z,10.06
2017-07-10T02:56:10.325Z,10.04
2017-07-10T02:57:10.636Z,10.01
2017-07-10T02:58:10.619Z,10.01
2017-07-10T02:59:10.611Z,10.06
2017-07-10T03:00:10.602Z,10.04
2017-07-10T03:01:10.594Z,10.04
2017-07-10T03:02:10.282Z,10.04
2017-07-10T03:03:10.272Z,9.99
2017-07-10T03:04:10.564Z,10.14
2017-07-10T03:05:10.554Z,10.04
2017-07-10T03:06:10.246Z,10.06
2017-07-10T03:07:10.234Z,10.09
2017-07-10T03:08:09.916Z,9.99
2017-07-10T03:09:10.518Z,10.14
2017-07-10T03:10:09.895Z,10.04
2017-07-10T03:11:10.510Z,9.99
2017-07-10T03:12:10.498Z,10.1
2017-07-10T03:13:10.489Z,10.01
2017-07-10T03:14:10.172Z,9.99
2017-07-10T03:15:10.473Z,10.01
2017-07-10T03:16:10.467Z,10.06
2017-07-10T03:17:10.458Z,9.96
2017-07-10T03:18:10.443Z,9.96
2017-07-10T03:19:10.436Z,9.98
2017-07-10T03:20:10.435Z,10.04
2017-07-10T03:21:10.417Z,10.04
2017-07-10T03:22:10.400Z,9.99
2017-07-10T03:23:10.086Z,10.07
2017-07-10T03:24:10.082Z,9.99
2017-07-10T03:25:10.065Z,9.98
2017-07-10T03:26:10.067Z,10.07
2017-07-10T03:27:10.059Z,10.02
2017-07-10T03:28:10.371Z,10.04
2017-07-10T03:29:10.042Z,10.13
2017-07-10T03:30:09.719Z,10.16
2017-07-10T03:31:10.010Z,10.14
2017-07-10T03:32:10.322Z,10.25
2017-07-10T03:33:10.306Z,10.2
2017-07-10T03:34:10.301Z,10.22
2017-07-10T03:35:09.986Z,10.29
2017-07-10T03:36:09.975Z,10.28
2017-07-10T03:37:09.971Z,10.25
2017-07-10T03:38:10.274Z,10.2
2017-07-10T03:39:10.278Z,10.17
2017-07-10T03:40:10.247Z,10.16
2017-07-10T03:41:10.243Z,10.11
2017-07-10T03:42:10.234Z,10.13
2017-07-10T03:43:10.217Z,10.14
2017-07-10T03:44:09.900Z,10.18
2017-07-10T03:45:10.214Z,10.18
2017-07-10T03:46:10.199Z,10.13
2017-07-10T03:47:10.243Z,10.2
2017-07-10T03:48:10.187Z,10.22
2017-07-10T03:49:10.178Z,10.13
2017-07-10T03:50:10.169Z,10.28
2017-07-10T03:51:10.144Z,10.18
2017-07-10T03:52:10.143Z,10.2
2017-07-10T03:53:10.155Z,10.13
2017-07-10T03:54:09.818Z,10.2
2017-07-10T03:55:10.121Z,10.17
2017-07-10T03:56:10.112Z,10.22
2017-07-10T03:57:10.104Z,10.22
2017-07-10T03:58:09.779Z,10.26
2017-07-10T03:59:10.081Z,10.2
2017-07-10T04:00:10.079Z,10.22
2017-07-10T04:01:10.062Z,10.17
2017-07-10T04:02:10.068Z,10.31
2017-07-10T04:03:09.733Z,10.22
2017-07-10T04:04:09.728Z,10.04
2017-07-10T04:05:10.034Z,10.02
2017-07-10T04:06:09.716Z,10.01
2017-07-10T04:07:09.709Z,10.06
2017-07-10T04:08:10.005Z,10.01
2017-07-10T04:09:09.989Z,10.06
2017-07-10T04:10:09.676Z,10.04
2017-07-10T04:11:09.969Z,10.06
2017-07-10T04:12:09.658Z,10.07
2017-07-10T04:13:09.957Z,10.02
2017-07-10T04:14:09.940Z,10.06
2017-07-10T04:15:09.634Z,10.07
2017-07-10T04:16:09.988Z,10.1
2017-07-10T04:17:09.623Z,9.99
2017-07-10T04:18:09.924Z,10.16
2017-07-10T04:19:09.905Z,10.1
2017-07-10T04:20:09.906Z,10.11
2017-07-10T04:21:09.881Z,10.1
2017-07-10T04:22:09.874Z,10.07
2017-07-10T04:23:09.251Z,10.04
2017-07-10T04:24:09.854Z,10.13
2017-07-10T04:25:09.545Z,10.02
2017-07-10T04:26:09.836Z,9.99
2017-07-10T04:27:09.831Z,10.1
2017-07-10T04:28:09.209Z,10.09
2017-07-10T04:29:09.820Z,10.25
2017-07-10T04:30:09.814Z,10.17
2017-07-10T04:31:09.485Z,10.28
2017-07-10T04:32:09.478Z,10.17
2017-07-10T04:33:09.842Z,10.11
2017-07-10T04:34:09.775Z,10.22
2017-07-10T04:35:09.775Z,10.25
2017-07-10T04:36:09.758Z,10.28
2017-07-10T04:37:09.751Z,10.31
2017-07-10T04:38:09.422Z,10.42
2017-07-10T04:39:09.733Z,10.44
2017-07-10T04:40:09.730Z,10.38
2017-07-10T04:41:09.714Z,10.43
2017-07-10T04:42:09.710Z,10.28
2017-07-10T04:43:09.690Z,10.35
2017-07-10T04:44:09.683Z,10.31
2017-07-10T04:45:09.681Z,10.32
2017-07-10T04:46:09.677Z,10.25
2017-07-10T04:47:09.657Z,10.51
2017-07-10T04:48:09.336Z,10.55
2017-07-10T04:49:09.644Z,10.51
2017-07-10T04:50:09.633Z,10.54
2017-07-10T04:51:09.312Z,10.38
2017-07-10T04:52:09.306Z,10.43
2017-07-10T04:53:09.620Z,10.57
2017-07-10T04:54:09.291Z,10.54
2017-07-10T04:55:09.281Z,10.22
2017-07-10T04:56:09.594Z,10.18
2017-07-10T04:57:09.266Z,10.14
2017-07-10T04:58:09.570Z,10.16
2017-07-10T04:59:09.571Z,10.38
2017-07-10T05:00:09.561Z,10.69
2017-07-10T05:01:09.245Z,10.81
2017-07-10T05:02:09.231Z,10.88
2017-07-10T05:03:09.215Z,10.63
2017-07-10T05:04:09.522Z,10.58
2017-07-10T05:05:09.525Z,10.62
2017-07-10T05:06:09.514Z,10.63
2017-07-10T05:07:09.520Z,10.76
2017-07-10T05:08:09.498Z,10.62
2017-07-10T05:09:09.498Z,10.7
2017-07-10T05:10:09.478Z,10.31
2017-07-10T05:11:09.153Z,10.18
2017-07-10T05:12:09.460Z,10.11
2017-07-10T05:13:08.833Z,10.17
2017-07-10T05:14:09.447Z,10.17
2017-07-10T05:15:09.438Z,10.14
2017-07-10T05:16:09.120Z,10.2
2017-07-10T05:17:09.422Z,10.36
2017-07-10T05:18:09.420Z,10.28
2017-07-10T05:19:09.407Z,10.31
2017-07-10T05:20:09.390Z,10.29
2017-07-10T05:21:09.388Z,10.39
2017-07-10T05:22:09.380Z,10.44
2017-07-10T05:23:08.747Z,10.34
2017-07-10T05:24:09.370Z,10.32
2017-07-10T05:25:09.363Z,10.38
2017-07-10T05:26:09.348Z,10.43
2017-07-10T05:27:09.338Z,10.42
2017-07-10T05:28:09.328Z,10.52
2017-07-10T05:29:09.322Z,10.63
2017-07-10T05:30:09.322Z,10.28
2017-07-10T05:31:09.315Z,10.04
2017-07-10T05:32:09.297Z,10.13
2017-07-10T05:33:09.284Z,10.22
2017-07-10T05:34:09.282Z,10.43
2017-07-10T05:35:08.647Z,10.73
2017-07-10T05:36:08.640Z,10.94
2017-07-10T05:37:08.949Z,10.9
2017-07-10T05:38:09.253Z,10.66
2017-07-10T05:39:09.249Z,10.43
2017-07-10T05:40:09.230Z,10.42
2017-07-10T05:41:08.913Z,10.25
2017-07-10T05:42:08.911Z,10.34
2017-07-10T05:43:09.214Z,10.65
2017-07-10T05:44:09.206Z,11.44
2017-07-10T05:45:09.200Z,12.25
2017-07-10T05:46:08.885Z,12.59
2017-07-10T05:47:09.186Z,12.55
2017-07-10T05:48:08.857Z,12.44
2017-07-10T05:49:09.171Z,12.38
2017-07-10T05:50:09.161Z,11.94
2017-07-10T05:51:09.150Z,11.9
2017-07-10T05:52:09.142Z,12
2017-07-10T05:53:09.129Z,12.07
2017-07-10T05:54:09.123Z,11.77
2017-07-10T05:55:09.125Z,11.51
2017-07-10T05:56:09.114Z,11.48
2017-07-10T05:57:09.099Z,11.54
2017-07-10T05:58:09.105Z,11.42
2017-07-10T05:59:09.084Z,11.23
2017-07-10T06:00:09.082Z,11.27
2017-07-10T06:01:08.773Z,11.44
2017-07-10T06:02:08.764Z,11.59
2017-07-10T06:03:09.057Z,11.77
2017-07-10T06:04:08.740Z,11.64
2017-07-10T06:05:09.046Z,11.79
2017-07-10T06:06:09.035Z,11.77
2017-07-10T06:07:08.718Z,11.75
2017-07-10T06:08:08.717Z,11.64
2017-07-10T06:09:09.015Z,11.64
2017-07-10T06:10:08.695Z,11.75
2017-07-10T06:11:08.684Z,11.62
2017-07-10T06:12:08.685Z,10.95
2017-07-10T06:13:08.983Z,10.65
2017-07-10T06:14:08.975Z,10.66
2017-07-10T06:15:08.974Z,10.93
2017-07-10T06:16:08.647Z,10.99
2017-07-10T06:17:08.949Z,11.27
2017-07-10T06:18:08.941Z,11.38
2017-07-10T06:19:08.630Z,11.31
2017-07-10T06:20:08.972Z,11.31
2017-07-10T06:21:08.924Z,11.33
2017-07-10T06:22:08.596Z,11.35
2017-07-10T06:23:08.586Z,11.6
2017-07-10T06:24:08.898Z,11.69
2017-07-10T06:25:08.890Z,12.01
2017-07-10T06:26:08.571Z,12.46
2017-07-10T06:27:08.871Z,12.92
2017-07-10T06:28:08.861Z,13.43
2017-07-10T06:29:08.553Z,13.54
2017-07-10T06:30:08.541Z,12.95
2017-07-10T06:31:08.843Z,12.66
2017-07-10T06:32:08.839Z,12.96
2017-07-10T06:33:08.825Z,13.46
2017-07-10T06:34:08.195Z,13.88
2017-07-10T06:35:08.804Z,14.27
2017-07-10T06:36:08.807Z,14.38
2017-07-10T06:37:08.496Z,14.93
2017-07-10T06:38:08.475Z,15.07
2017-07-10T06:39:08.775Z,15.2
2017-07-10T06:40:08.768Z,15.19
2017-07-10T06:41:08.771Z,15.18
2017-07-10T06:42:08.769Z,14.82
2017-07-10T06:43:08.758Z,14.42
2017-07-10T06:44:08.449Z,14.16
2017-07-10T06:45:08.441Z,14.06
2017-07-10T06:46:08.740Z,14.04
2017-07-10T06:47:08.727Z,13.79
2017-07-10T06:48:08.733Z,13.84
2017-07-10T06:49:08.422Z,13.46
2017-07-10T06:50:08.705Z,13.94
2017-07-10T06:51:08.389Z,13.14
2017-07-10T06:52:08.387Z,13.47
2017-07-10T06:53:08.693Z,13.87
2017-07-10T06:54:08.689Z,13.22
2017-07-10T06:55:08.687Z,13.46
2017-07-10T06:56:08.435Z,13.72
2017-07-10T06:57:08.669Z,13.8
2017-07-10T06:58:08.662Z,13.38
2017-07-10T06:59:08.655Z,13.19
2017-07-10T07:00:08.336Z,13.09
2017-07-10T07:01:08.639Z,13.44
2017-07-10T07:02:08.641Z,13.72
2017-07-10T07:03:08.316Z,14.31
2017-07-10T07:04:08.629Z,14.48
2017-07-10T07:05:08.616Z,14.67
2017-07-10T07:06:08.607Z,14.57
2017-07-10T07:07:08.295Z,14.72
2017-07-10T07:08:08.593Z,14.52
2017-07-10T07:09:08.282Z,13.79
2017-07-10T07:10:08.268Z,13.43
2017-07-10T07:11:08.572Z,12.89
2017-07-10T07:12:08.558Z,12.79
2017-07-10T07:13:08.568Z,12.77
2017-07-10T07:14:08.554Z,12.99
2017-07-10T07:15:08.231Z,12.85
2017-07-10T07:16:07.918Z,12.59
2017-07-10T07:17:08.218Z,12.44
2017-07-10T07:18:08.527Z,12.12
2017-07-10T07:19:08.518Z,11.84
2017-07-10T07:20:08.516Z,11.85
2017-07-10T07:21:08.586Z,11.78
2017-07-10T07:22:07.873Z,11.75
2017-07-10T07:23:08.180Z,11.35
2017-07-10T07:24:08.180Z,11.23
2017-07-10T07:25:08.168Z,10.91
2017-07-10T07:26:08.477Z,10.83
2017-07-10T07:27:08.147Z,10.98
2017-07-10T07:28:08.461Z,10.68
2017-07-10T07:29:08.446Z,10.62
2017-07-10T07:30:08.129Z,11.05
2017-07-10T07:31:08.446Z,11.44
2017-07-10T07:32:08.437Z,11.36
2017-07-10T07:33:08.109Z,11.09
2017-07-10T07:34:08.413Z,10.88
2017-07-10T07:35:08.414Z,10.76
2017-07-10T07:36:08.090Z,10.47
2017-07-10T07:37:08.401Z,10.42
2017-07-10T07:38:08.074Z,10.36
2017-07-10T07:39:08.372Z,10.51
2017-07-10T07:40:08.048Z,10.6
2017-07-10T07:41:08.354Z,10.93
2017-07-10T07:42:08.030Z,11.09
2017-07-10T07:43:08.344Z,11.57
2017-07-10T07:44:08.324Z,11.79
2017-07-10T07:45:08.013Z,11.57
2017-07-10T07:46:08.009Z,11.54
2017-07-10T07:47:08.298Z,11.33
2017-07-10T07:48:07.989Z,10.98
2017-07-10T07:49:08.300Z,11.08
2017-07-10T07:50:08.291Z,11.46
2017-07-10T07:51:07.967Z,11.44
2017-07-10T07:52:08.261Z,11.74
2017-07-10T07:53:07.955Z,11.93
2017-07-10T07:54:08.246Z,11.93
2017-07-10T07:55:07.936Z,11.75
2017-07-10T07:56:07.932Z,11.87
2017-07-10T07:57:07.913Z,11.97
2017-07-10T07:58:08.222Z,12.62
2017-07-10T07:59:08.218Z,13.19
2017-07-10T08:00:07.900Z,13.04
2017-07-10T08:01:08.202Z,13.04
2017-07-10T08:02:08.191Z,13.04
2017-07-10T08:03:08.182Z,13.04
2017-07-10T08:04:08.184Z,12.98
2017-07-10T08:05:08.226Z,12.62
2017-07-10T08:06:08.165Z,13.17
2017-07-10T08:07:07.846Z,13.69
2017-07-10T08:08:08.148Z,14.12
2017-07-10T08:09:08.151Z,14.56
2017-07-10T08:10:07.824Z,14.8
2017-07-10T08:11:07.825Z,14.75
2017-07-10T08:12:07.859Z,14.06
2017-07-10T08:13:07.808Z,13.68
2017-07-10T08:14:08.102Z,14.17
2017-07-10T08:15:08.103Z,14.29
2017-07-10T08:16:08.097Z,14.49
2017-07-10T08:17:08.097Z,14.67
2017-07-10T08:18:07.770Z,14.64
2017-07-10T08:19:07.772Z,15.15
2017-07-10T08:20:08.067Z,15.2
2017-07-10T08:21:07.761Z,15.95
2017-07-10T08:22:07.433Z,16.91
2017-07-10T08:23:07.747Z,16.07
2017-07-10T08:24:08.052Z,15.53
2017-07-10T08:25:08.042Z,14.41
2017-07-10T08:26:08.039Z,14.06
2017-07-10T08:27:08.094Z,14.53
2017-07-10T08:28:07.722Z,15.55
2017-07-10T08:29:07.739Z,16.1
2017-07-10T08:30:07.713Z,16.67
2017-07-10T08:31:07.393Z,16.23
2017-07-10T08:32:07.696Z,16.17
2017-07-10T08:33:07.692Z,16.03
2017-07-10T08:34:07.683Z,14.94
2017-07-10T08:35:07.370Z,14.08
2017-07-10T08:36:07.981Z,14.16
2017-07-10T08:37:07.670Z,14.29
2017-07-10T08:38:07.657Z,14.66
2017-07-10T08:39:07.661Z,14.49
2017-07-10T08:40:07.961Z,14.49
2017-07-10T08:41:07.964Z,14.94
2017-07-10T08:42:07.639Z,15.4
2017-07-10T08:43:07.945Z,15.92
2017-07-10T08:44:07.635Z,16.73
2017-07-10T08:45:07.930Z,17.18
2017-07-10T08:46:07.926Z,17.15
2017-07-10T08:47:07.613Z,16.66
2017-07-10T08:48:07.924Z,16.63
2017-07-10T08:49:07.910Z,16.16
2017-07-10T08:50:07.285Z,16.08
2017-07-10T08:51:07.904Z,15.76
2017-07-10T08:52:07.593Z,15.62
2017-07-10T08:53:07.886Z,15.46
2017-07-10T08:54:07.892Z,15.15
2017-07-10T08:55:07.568Z,14.53
2017-07-10T08:56:07.874Z,14.13
2017-07-10T08:57:07.859Z,13.66
2017-07-10T08:58:07.865Z,13.09
2017-07-10T08:59:07.858Z,12.66
2017-07-10T09:00:07.851Z,12.41
2017-07-10T09:01:07.844Z,12.29
2017-07-10T09:02:07.844Z,11.48
2017-07-10T09:03:07.213Z,10.18
2017-07-10T09:04:07.516Z,10.25
2017-07-10T09:05:07.508Z,10.47
2017-07-10T09:06:07.504Z,9.95
2017-07-10T09:07:07.181Z,9.55
2017-07-10T09:08:07.495Z,9.62
2017-07-10T09:09:07.476Z,9.85
2017-07-10T09:10:07.478Z,10.13
2017-07-10T09:11:07.159Z,10.13
2017-07-10T09:12:07.454Z,10.26
2017-07-10T09:13:07.765Z,10.2
2017-07-10T09:14:07.128Z,10.52
2017-07-10T09:15:07.739Z,10.63
2017-07-10T09:16:07.425Z,10.7
2017-07-10T09:17:07.410Z,10.78
2017-07-10T09:18:07.719Z,10.69
2017-07-10T09:19:07.715Z,10.55
2017-07-10T09:20:07.713Z,10.68
2017-07-10T09:21:07.378Z,10.84
2017-07-10T09:22:07.369Z,10.58
2017-07-10T09:23:07.053Z,10.69
2017-07-10T09:24:07.056Z,11.13
2017-07-10T09:25:07.670Z,11.53
2017-07-10T09:26:07.034Z,11.53
2017-07-10T09:27:07.648Z,11.41
2017-07-10T09:28:07.647Z,11.45
2017-07-10T09:29:07.328Z,11.77
2017-07-10T09:30:07.008Z,12.03
2017-07-10T09:31:07.304Z,11.46
2017-07-10T09:32:07.309Z,11.26
2017-07-10T09:33:07.283Z,10.94
2017-07-10T09:34:07.285Z,10.8
2017-07-10T09:35:07.278Z,11.03
2017-07-10T09:36:07.277Z,11.09
2017-07-10T09:37:06.944Z,11.24
2017-07-10T09:38:07.250Z,10.51
2017-07-10T09:39:07.249Z,10.7
2017-07-10T09:40:07.229Z,10.76
2017-07-10T09:41:06.912Z,10.99
2017-07-10T09:42:07.212Z,11.16
2017-07-10T09:43:07.209Z,11.64
2017-07-10T09:44:07.203Z,12.13
2017-07-10T09:45:07.500Z,11.62
2017-07-10T09:46:07.183Z,11.44
2017-07-10T09:47:07.183Z,11.88
2017-07-10T09:48:07.494Z,12
2017-07-10T09:49:07.163Z,12.66
2017-07-10T09:50:07.148Z,12.26
2017-07-10T09:51:07.456Z,12.07
2017-07-10T09:52:07.452Z,12.59
2017-07-10T09:53:07.440Z,12.43
2017-07-10T09:54:07.128Z,12.41
2017-07-10T09:55:07.423Z,12.92
2017-07-10T09:56:07.102Z,13.39
2017-07-10T09:57:07.401Z,13.72
2017-07-10T09:58:07.413Z,13.99
2017-07-10T09:59:07.082Z,13.57
2017-07-10T10:00:06.977Z,13.54
2017-07-10T10:01:07.074Z,13.87
2017-07-10T10:02:07.392Z,14.17
2017-07-10T10:03:07.363Z,13.94
2017-07-10T10:04:06.747Z,13.17
2017-07-10T10:05:07.044Z,13.06
2017-07-10T10:06:07.354Z,12.99
2017-07-10T10:07:07.347Z,13.22
2017-07-10T10:08:07.351Z,13.27
2017-07-10T10:09:06.711Z,13.17
2017-07-10T10:10:06.706Z,13.06
2017-07-10T10:11:07.000Z,13.14
2017-07-10T10:12:07.313Z,13.29
2017-07-10T10:13:06.992Z,13.36
2017-07-10T10:14:06.982Z,13.65
2017-07-10T10:15:06.984Z,13.36
2017-07-10T10:16:07.273Z,13.04
2017-07-10T10:17:07.279Z,13.09
2017-07-10T10:18:06.955Z,13.21
2017-07-10T10:19:07.263Z,13.46
2017-07-10T10:20:06.624Z,13.65
2017-07-10T10:21:06.619Z,13.84
2017-07-10T10:22:06.619Z,13.53
2017-07-10T10:23:06.607Z,13.48
2017-07-10T10:24:06.909Z,13.41
2017-07-10T10:25:06.905Z,13.32
2017-07-10T10:26:06.891Z,13.21
2017-07-10T10:27:06.952Z,13.31
2017-07-10T10:28:06.890Z,12.62
2017-07-10T10:29:06.874Z,12.54
2017-07-10T10:30:07.170Z,12.63
2017-07-10T10:31:07.177Z,12.59
2017-07-10T10:32:06.853Z,12.19
2017-07-10T10:33:06.846Z,12.3
2017-07-10T10:34:06.833Z,12.31
2017-07-10T10:35:06.839Z,12.08
2017-07-10T10:36:06.517Z,11.96
2017-07-10T10:37:06.821Z,11.82
2017-07-10T10:38:07.116Z,11.78
2017-07-10T10:39:06.799Z,11.72
2017-07-10T10:40:06.793Z,11.64
2017-07-10T10:41:06.788Z,11.6
2017-07-10T10:42:07.083Z,11.84
2017-07-10T10:43:07.087Z,11.98
2017-07-10T10:44:07.068Z,12
2017-07-10T10:45:06.748Z,11.78
2017-07-10T10:46:06.439Z,11.7
2017-07-10T10:47:06.741Z,11.7
2017-07-10T10:48:07.033Z,11.75
2017-07-10T10:49:06.411Z,11.74
2017-07-10T10:50:06.403Z,11.79
2017-07-10T10:51:07.014Z,11.64
2017-07-10T10:52:06.387Z,10.93
2017-07-10T10:53:06.378Z,10.55
2017-07-10T10:54:06.685Z,10.88
2017-07-10T10:55:06.354Z,11.11
2017-07-10T10:56:06.352Z,11.31
2017-07-10T10:57:06.647Z,11.57
2017-07-10T10:58:06.331Z,11.77
2017-07-10T10:59:06.326Z,11.81
2017-07-10T11:00:06.632Z,11.72
2017-07-10T11:01:06.934Z,11.33
2017-07-10T11:02:06.611Z,11.62
2017-07-10T11:03:06.291Z,11.06
2017-07-10T11:04:06.594Z,11.09
2017-07-10T11:05:06.587Z,11.44
2017-07-10T11:06:06.575Z,11.59
2017-07-10T11:07:06.876Z,11.69
2017-07-10T11:08:06.888Z,11.75
2017-07-10T11:09:06.852Z,12.16
2017-07-10T11:10:06.862Z,12.55
2017-07-10T11:11:06.847Z,12.61
2017-07-10T11:12:06.521Z,12.92
2017-07-10T11:13:06.829Z,12.88
2017-07-10T11:14:06.827Z,12.87
2017-07-10T11:15:06.814Z,12.61
2017-07-10T11:16:06.803Z,12.94
2017-07-10T11:17:06.797Z,13.21
2017-07-10T11:18:06.488Z,13.55
2017-07-10T11:19:06.774Z,13.73
2017-07-10T11:20:06.158Z,13.5
2017-07-10T11:21:06.775Z,13.41
2017-07-10T11:22:06.142Z,13.35
2017-07-10T11:23:06.134Z,12.33
2017-07-10T11:24:06.744Z,12.19
2017-07-10T11:25:06.734Z,12.76
2017-07-10T11:26:06.729Z,13.44
2017-07-10T11:27:06.106Z,13.69
2017-07-10T11:28:06.409Z,13.66
2017-07-10T11:29:06.404Z,13.8
2017-07-10T11:30:06.399Z,13.91
2017-07-10T11:31:06.695Z,14.29
2017-07-10T11:32:06.701Z,14.38
2017-07-10T11:33:06.680Z,14.54
2017-07-10T11:34:06.058Z,14.82
2017-07-10T11:35:06.671Z,14.6
2017-07-10T11:36:06.342Z,13.88
2017-07-10T11:37:06.643Z,14.13
2017-07-10T11:38:06.331Z,13.69
2017-07-10T11:39:06.011Z,12.71
2017-07-10T11:40:06.639Z,12.52
2017-07-10T11:41:06.311Z,12.7
2017-07-10T11:42:06.301Z,12.96
2017-07-10T11:43:06.608Z,13.12
2017-07-10T11:44:06.608Z,13.25
2017-07-10T11:45:06.286Z,13.36
2017-07-10T11:46:06.590Z,13.61
2017-07-10T11:47:05.959Z,13.65
2017-07-10T11:48:06.577Z,13.65
2017-07-10T11:49:06.574Z,13.71
2017-07-10T11:50:06.251Z,13.69
2017-07-10T11:51:05.937Z,13.53
2017-07-10T11:52:06.230Z,13.35
2017-07-10T11:53:06.224Z,13.1
2017-07-10T11:54:06.534Z,12.98
2017-07-10T11:55:05.897Z,12.98
2017-07-10T11:56:06.519Z,12.88
2017-07-10T11:57:06.199Z,12.7
2017-07-10T11:58:06.500Z,12.67
2017-07-10T11:59:06.499Z,12.59
2017-07-10T12:00:06.556Z,12.56
2017-07-10T12:01:06.484Z,12.38
2017-07-10T12:02:06.477Z,11.85
2017-07-10T12:03:06.152Z,11.7
2017-07-10T12:04:06.139Z,11.69
2017-07-10T12:05:06.455Z,11.7
2017-07-10T12:06:06.441Z,11.88
2017-07-10T12:07:06.125Z,11.67
2017-07-10T12:08:06.122Z,11.9
2017-07-10T12:09:06.408Z,12.16
2017-07-10T12:10:06.412Z,12.63
2017-07-10T12:11:06.405Z,12.92
2017-07-10T12:12:06.393Z,12.85
2017-07-10T12:13:06.082Z,12.81
2017-07-10T12:14:06.382Z,12.34
2017-07-10T12:15:06.053Z,12.38
2017-07-10T12:16:06.375Z,12.73
2017-07-10T12:17:06.045Z,12.94
2017-07-10T12:18:06.355Z,12.62
2017-07-10T12:19:06.034Z,12.67
2017-07-10T12:20:05.718Z,12.74
2017-07-10T12:21:06.330Z,12.87
2017-07-10T12:22:06.323Z,12.81
2017-07-10T12:23:05.689Z,13.06
2017-07-10T12:24:06.300Z,13.09
2017-07-10T12:25:05.994Z,13.14
2017-07-10T12:26:06.289Z,13.38
2017-07-10T12:27:05.965Z,13.32
2017-07-10T12:28:06.270Z,13.28
2017-07-10T12:29:06.154Z,13.47
2017-07-10T12:30:05.645Z,13.57
2017-07-10T12:31:05.949Z,13.75
2017-07-10T12:32:06.257Z,13.71
2017-07-10T12:33:06.240Z,13.8
2017-07-10T12:34:06.452Z,13.87
2017-07-10T12:35:06.133Z,13.69
2017-07-10T12:36:05.904Z,13.63
2017-07-10T12:37:05.588Z,13.54
2017-07-10T12:38:06.205Z,13.54
2017-07-10T12:39:05.887Z,13.72
2017-07-10T12:40:19.835Z,13.76
2017-07-10T12:41:05.562Z,13.53
2017-07-10T12:42:06.178Z,13.03
2017-07-10T12:43:06.174Z,12.98
2017-07-10T12:44:06.164Z,13.09
2017-07-10T12:45:06.150Z,13.17
2017-07-10T12:46:06.171Z,13.27
2017-07-10T12:47:06.205Z,13.48
2017-07-10T12:48:05.515Z,13.75
2017-07-10T12:49:06.128Z,14.05
2017-07-10T12:50:06.126Z,13.79
2017-07-10T12:51:06.110Z,13.55
2017-07-10T12:52:05.800Z,13.46
2017-07-10T12:53:06.097Z,12.74
2017-07-10T12:54:06.107Z,13.03
2017-07-10T12:55:06.089Z,12.52
2017-07-10T12:56:06.083Z,12.81